Schedule Details


Flight Number: CTN4467
Departure: Zurich (LSZH) at 14:40
Arrival: Cilipi (LDDU) at 16:35
Route: DEGES?N871?MADEB?N606?ELMEM?L607?GEDSO?DCT?TUTIV?DCT?GEMKA?L607?NERRA

Weather Information
LSZH 170050Z AUTO 32001KT 0750 0050N R14/0400N R16/0400N R28/0900D R34/0800U FG VCFG FEW001 05/05 Q1021 TEMPO 0300 FG VV001
LDDU 170100Z 03012KT 330V070 CAVOK 14/05 Q1017
Schedule Frequency

Route Map